sensor_id;sensor_type;location;lat;lon;timestamp;P1;durP1;ratioP1;P2;durP2;ratioP2
24233;SDS011;12365;43.554;1.388;2024-03-22T00:00:02;17.17;;;6.22;;
24233;SDS011;12365;43.554;1.388;2024-03-22T00:02:28;15.40;;;6.53;;
24233;SDS011;12365;43.554;1.388;2024-03-22T00:04:53;17.90;;;6.40;;
24233;SDS011;12365;43.554;1.388;2024-03-22T00:07:19;15.50;;;6.40;;
24233;SDS011;12365;43.554;1.388;2024-03-22T00:09:44;12.93;;;6.10;;
24233;SDS011;12365;43.554;1.388;2024-03-22T00:12:10;16.30;;;6.47;;
24233;SDS011;12365;43.554;1.388;2024-03-22T00:14:35;15.00;;;5.90;;
24233;SDS011;12365;43.554;1.388;2024-03-22T00:17:00;14.02;;;6.00;;
24233;SDS011;12365;43.554;1.388;2024-03-22T00:19:26;18.45;;;6.72;;
24233;SDS011;12365;43.554;1.388;2024-03-22T00:21:51;14.43;;;6.25;;
24233;SDS011;12365;43.554;1.388;2024-03-22T00:24:17;14.05;;;6.63;;
24233;SDS011;12365;43.554;1.388;2024-03-22T00:26:42;17.92;;;6.35;;
24233;SDS011;12365;43.554;1.388;2024-03-22T00:29:07;14.93;;;6.38;;
24233;SDS011;12365;43.554;1.388;2024-03-22T00:31:33;16.70;;;6.45;;
24233;SDS011;12365;43.554;1.388;2024-03-22T00:33:58;12.93;;;6.20;;
24233;SDS011;12365;43.554;1.388;2024-03-22T00:36:24;16.02;;;6.43;;
24233;SDS011;12365;43.554;1.388;2024-03-22T00:38:49;14.32;;;7.32;;
24233;SDS011;12365;43.554;1.388;2024-03-22T00:41:15;14.15;;;6.78;;
24233;SDS011;12365;43.554;1.388;2024-03-22T00:43:40;17.00;;;6.35;;
24233;SDS011;12365;43.554;1.388;2024-03-22T00:46:05;15.90;;;6.22;;
24233;SDS011;12365;43.554;1.388;2024-03-22T00:48:32;13.32;;;6.35;;
24233;SDS011;12365;43.554;1.388;2024-03-22T00:50:58;15.93;;;6.28;;
24233;SDS011;12365;43.554;1.388;2024-03-22T00:53:23;11.65;;;5.95;;
24233;SDS011;12365;43.554;1.388;2024-03-22T00:55:49;15.48;;;5.97;;
24233;SDS011;12365;43.554;1.388;2024-03-22T00:58:17;14.55;;;6.05;;
24233;SDS011;12365;43.554;1.388;2024-03-22T01:00:43;16.83;;;6.25;;
24233;SDS011;12365;43.554;1.388;2024-03-22T01:03:09;15.38;;;6.47;;
24233;SDS011;12365;43.554;1.388;2024-03-22T01:05:35;13.73;;;5.75;;
24233;SDS011;12365;43.554;1.388;2024-03-22T01:08:01;12.25;;;6.03;;
24233;SDS011;12365;43.554;1.388;2024-03-22T01:10:26;12.15;;;5.80;;
24233;SDS011;12365;43.554;1.388;2024-03-22T01:12:52;15.70;;;6.13;;
24233;SDS011;12365;43.554;1.388;2024-03-22T01:15:17;12.95;;;6.15;;
24233;SDS011;12365;43.554;1.388;2024-03-22T01:17:43;12.77;;;6.13;;
24233;SDS011;12365;43.554;1.388;2024-03-22T01:20:08;14.43;;;6.68;;
24233;SDS011;12365;43.554;1.388;2024-03-22T01:22:34;14.82;;;6.18;;
24233;SDS011;12365;43.554;1.388;2024-03-22T01:25:00;11.30;;;5.65;;
24233;SDS011;12365;43.554;1.388;2024-03-22T01:27:25;17.27;;;5.97;;
24233;SDS011;12365;43.554;1.388;2024-03-22T01:29:51;14.10;;;6.30;;
24233;SDS011;12365;43.554;1.388;2024-03-22T01:32:16;18.38;;;6.45;;
24233;SDS011;12365;43.554;1.388;2024-03-22T01:34:41;15.73;;;6.68;;
24233;SDS011;12365;43.554;1.388;2024-03-22T01:37:07;13.25;;;5.82;;
24233;SDS011;12365;43.554;1.388;2024-03-22T01:39:32;17.17;;;6.32;;
24233;SDS011;12365;43.554;1.388;2024-03-22T01:41:58;13.52;;;5.88;;
24233;SDS011;12365;43.554;1.388;2024-03-22T01:44:31;16.48;;;5.78;;
24233;SDS011;12365;43.554;1.388;2024-03-22T01:47:00;12.38;;;6.20;;
24233;SDS011;12365;43.554;1.388;2024-03-22T01:49:26;10.98;;;5.53;;
24233;SDS011;12365;43.554;1.388;2024-03-22T01:51:52;16.85;;;6.10;;
24233;SDS011;12365;43.554;1.388;2024-03-22T01:54:18;13.63;;;5.78;;
24233;SDS011;12365;43.554;1.388;2024-03-22T01:56:45;12.38;;;5.85;;
24233;SDS011;12365;43.554;1.388;2024-03-22T01:59:11;12.75;;;5.57;;
24233;SDS011;12365;43.554;1.388;2024-03-22T02:01:37;10.68;;;5.28;;
24233;SDS011;12365;43.554;1.388;2024-03-22T02:04:03;12.02;;;5.35;;
24233;SDS011;12365;43.554;1.388;2024-03-22T02:06:28;11.32;;;5.55;;
24233;SDS011;12365;43.554;1.388;2024-03-22T02:08:54;15.00;;;5.32;;
24233;SDS011;12365;43.554;1.388;2024-03-22T02:11:20;11.80;;;5.30;;
24233;SDS011;12365;43.554;1.388;2024-03-22T02:13:46;13.95;;;5.25;;
24233;SDS011;12365;43.554;1.388;2024-03-22T02:16:11;12.63;;;5.63;;
24233;SDS011;12365;43.554;1.388;2024-03-22T02:18:37;12.18;;;5.47;;
24233;SDS011;12365;43.554;1.388;2024-03-22T02:21:03;13.30;;;5.47;;
24233;SDS011;12365;43.554;1.388;2024-03-22T02:23:34;14.63;;;5.40;;
24233;SDS011;12365;43.554;1.388;2024-03-22T02:26:01;13.88;;;5.85;;
24233;SDS011;12365;43.554;1.388;2024-03-22T02:28:28;12.52;;;5.25;;
24233;SDS011;12365;43.554;1.388;2024-03-22T02:30:54;10.50;;;5.10;;
24233;SDS011;12365;43.554;1.388;2024-03-22T02:33:19;11.48;;;5.70;;
24233;SDS011;12365;43.554;1.388;2024-03-22T02:35:48;18.85;;;5.40;;
24233;SDS011;12365;43.554;1.388;2024-03-22T02:38:15;13.20;;;5.25;;
24233;SDS011;12365;43.554;1.388;2024-03-22T02:40:42;13.57;;;5.78;;
24233;SDS011;12365;43.554;1.388;2024-03-22T02:43:08;13.50;;;5.20;;
24233;SDS011;12365;43.554;1.388;2024-03-22T02:45:33;15.93;;;5.40;;
24233;SDS011;12365;43.554;1.388;2024-03-22T02:47:59;14.10;;;5.40;;
24233;SDS011;12365;43.554;1.388;2024-03-22T02:50:24;16.80;;;5.47;;
24233;SDS011;12365;43.554;1.388;2024-03-22T02:52:50;13.93;;;5.25;;
24233;SDS011;12365;43.554;1.388;2024-03-22T02:55:15;14.35;;;5.50;;
24233;SDS011;12365;43.554;1.388;2024-03-22T02:57:41;15.05;;;5.28;;
24233;SDS011;12365;43.554;1.388;2024-03-22T03:00:07;13.45;;;5.70;;
24233;SDS011;12365;43.554;1.388;2024-03-22T03:02:33;17.25;;;5.80;;
24233;SDS011;12365;43.554;1.388;2024-03-22T03:04:58;11.93;;;5.30;;
24233;SDS011;12365;43.554;1.388;2024-03-22T03:07:24;13.30;;;5.03;;
24233;SDS011;12365;43.554;1.388;2024-03-22T03:09:50;12.43;;;5.20;;
24233;SDS011;12365;43.554;1.388;2024-03-22T03:12:16;11.60;;;4.90;;
24233;SDS011;12365;43.554;1.388;2024-03-22T03:14:41;13.85;;;5.10;;
24233;SDS011;12365;43.554;1.388;2024-03-22T03:17:07;13.07;;;4.97;;
24233;SDS011;12365;43.554;1.388;2024-03-22T03:19:32;11.88;;;4.93;;
24233;SDS011;12365;43.554;1.388;2024-03-22T03:21:58;13.57;;;5.05;;
24233;SDS011;12365;43.554;1.388;2024-03-22T03:24:23;16.42;;;4.68;;
24233;SDS011;12365;43.554;1.388;2024-03-22T03:26:48;14.65;;;5.22;;
24233;SDS011;12365;43.554;1.388;2024-03-22T03:29:14;13.48;;;5.45;;
24233;SDS011;12365;43.554;1.388;2024-03-22T03:31:39;9.77;;;4.70;;
24233;SDS011;12365;43.554;1.388;2024-03-22T03:34:05;16.60;;;4.93;;
24233;SDS011;12365;43.554;1.388;2024-03-22T03:36:30;12.07;;;4.93;;
24233;SDS011;12365;43.554;1.388;2024-03-22T03:38:56;16.02;;;5.07;;
24233;SDS011;12365;43.554;1.388;2024-03-22T03:41:21;13.50;;;4.88;;
24233;SDS011;12365;43.554;1.388;2024-03-22T03:43:47;14.00;;;5.05;;
24233;SDS011;12365;43.554;1.388;2024-03-22T03:46:12;9.68;;;4.65;;
24233;SDS011;12365;43.554;1.388;2024-03-22T03:48:38;11.43;;;4.50;;
24233;SDS011;12365;43.554;1.388;2024-03-22T03:51:03;11.52;;;4.90;;
24233;SDS011;12365;43.554;1.388;2024-03-22T03:53:29;17.48;;;4.85;;
24233;SDS011;12365;43.554;1.388;2024-03-22T03:55:55;12.77;;;4.90;;
24233;SDS011;12365;43.554;1.388;2024-03-22T03:58:20;13.40;;;5.03;;
24233;SDS011;12365;43.554;1.388;2024-03-22T04:00:46;9.00;;;4.47;;
24233;SDS011;12365;43.554;1.388;2024-03-22T04:03:11;11.18;;;4.60;;
24233;SDS011;12365;43.554;1.388;2024-03-22T04:05:37;14.32;;;4.53;;
24233;SDS011;12365;43.554;1.388;2024-03-22T04:08:02;10.65;;;4.82;;
24233;SDS011;12365;43.554;1.388;2024-03-22T04:10:28;13.10;;;4.75;;
24233;SDS011;12365;43.554;1.388;2024-03-22T04:12:53;13.85;;;4.72;;
24233;SDS011;12365;43.554;1.388;2024-03-22T04:15:19;13.32;;;4.80;;
24233;SDS011;12365;43.554;1.388;2024-03-22T04:17:44;9.30;;;4.45;;
24233;SDS011;12365;43.554;1.388;2024-03-22T04:20:10;11.02;;;4.57;;
24233;SDS011;12365;43.554;1.388;2024-03-22T04:22:36;10.77;;;4.18;;
24233;SDS011;12365;43.554;1.388;2024-03-22T04:25:02;9.20;;;4.43;;
24233;SDS011;12365;43.554;1.388;2024-03-22T04:27:27;10.70;;;4.75;;
24233;SDS011;12365;43.554;1.388;2024-03-22T04:29:53;10.48;;;4.65;;
24233;SDS011;12365;43.554;1.388;2024-03-22T04:32:18;8.85;;;4.43;;
24233;SDS011;12365;43.554;1.388;2024-03-22T04:34:44;9.88;;;4.57;;
24233;SDS011;12365;43.554;1.388;2024-03-22T04:37:09;12.40;;;4.72;;
24233;SDS011;12365;43.554;1.388;2024-03-22T04:39:37;9.55;;;4.10;;
24233;SDS011;12365;43.554;1.388;2024-03-22T04:42:03;11.30;;;4.93;;
24233;SDS011;12365;43.554;1.388;2024-03-22T04:44:29;11.77;;;4.90;;
24233;SDS011;12365;43.554;1.388;2024-03-22T04:46:54;9.85;;;4.28;;
24233;SDS011;12365;43.554;1.388;2024-03-22T04:49:20;10.82;;;4.78;;
24233;SDS011;12365;43.554;1.388;2024-03-22T04:51:45;10.10;;;4.90;;
24233;SDS011;12365;43.554;1.388;2024-03-22T04:54:11;9.93;;;4.85;;
24233;SDS011;12365;43.554;1.388;2024-03-22T04:56:36;12.65;;;5.20;;
24233;SDS011;12365;43.554;1.388;2024-03-22T04:59:02;13.48;;;4.95;;
24233;SDS011;12365;43.554;1.388;2024-03-22T05:01:27;8.65;;;4.70;;
24233;SDS011;12365;43.554;1.388;2024-03-22T05:03:52;9.68;;;4.40;;
24233;SDS011;12365;43.554;1.388;2024-03-22T05:06:18;12.43;;;4.82;;
24233;SDS011;12365;43.554;1.388;2024-03-22T05:08:43;11.75;;;5.00;;
24233;SDS011;12365;43.554;1.388;2024-03-22T05:11:09;12.15;;;4.45;;
24233;SDS011;12365;43.554;1.388;2024-03-22T05:13:34;11.68;;;4.63;;
24233;SDS011;12365;43.554;1.388;2024-03-22T05:16:00;14.88;;;5.35;;
24233;SDS011;12365;43.554;1.388;2024-03-22T05:18:25;11.57;;;4.75;;
24233;SDS011;12365;43.554;1.388;2024-03-22T05:20:50;13.45;;;4.60;;
24233;SDS011;12365;43.554;1.388;2024-03-22T05:23:17;12.77;;;5.05;;
24233;SDS011;12365;43.554;1.388;2024-03-22T05:25:43;9.90;;;3.90;;
24233;SDS011;12365;43.554;1.388;2024-03-22T05:28:08;11.35;;;4.45;;
24233;SDS011;12365;43.554;1.388;2024-03-22T05:30:34;11.30;;;5.18;;
24233;SDS011;12365;43.554;1.388;2024-03-22T05:32:59;11.73;;;4.50;;
24233;SDS011;12365;43.554;1.388;2024-03-22T05:35:24;15.10;;;5.00;;
24233;SDS011;12365;43.554;1.388;2024-03-22T05:37:50;14.23;;;4.60;;
24233;SDS011;12365;43.554;1.388;2024-03-22T05:40:15;12.75;;;4.97;;
24233;SDS011;12365;43.554;1.388;2024-03-22T05:42:41;14.13;;;4.78;;
24233;SDS011;12365;43.554;1.388;2024-03-22T05:45:07;8.73;;;4.97;;
24233;SDS011;12365;43.554;1.388;2024-03-22T05:47:33;9.70;;;4.47;;
24233;SDS011;12365;43.554;1.388;2024-03-22T05:49:59;10.68;;;4.82;;
24233;SDS011;12365;43.554;1.388;2024-03-22T05:52:26;11.07;;;4.28;;
24233;SDS011;12365;43.554;1.388;2024-03-22T05:54:52;11.77;;;4.65;;
24233;SDS011;12365;43.554;1.388;2024-03-22T05:57:18;13.65;;;5.22;;
24233;SDS011;12365;43.554;1.388;2024-03-22T05:59:43;12.95;;;5.03;;
24233;SDS011;12365;43.554;1.388;2024-03-22T06:02:09;13.57;;;4.68;;
24233;SDS011;12365;43.554;1.388;2024-03-22T06:04:34;14.88;;;5.10;;
24233;SDS011;12365;43.554;1.388;2024-03-22T06:07:00;18.50;;;5.22;;
24233;SDS011;12365;43.554;1.388;2024-03-22T06:09:28;14.85;;;5.63;;
24233;SDS011;12365;43.554;1.388;2024-03-22T06:12:05;12.70;;;5.32;;
24233;SDS011;12365;43.554;1.388;2024-03-22T06:14:31;12.20;;;5.22;;
24233;SDS011;12365;43.554;1.388;2024-03-22T06:16:57;11.18;;;4.85;;
24233;SDS011;12365;43.554;1.388;2024-03-22T06:19:23;14.35;;;5.15;;
24233;SDS011;12365;43.554;1.388;2024-03-22T06:21:48;14.75;;;5.10;;
24233;SDS011;12365;43.554;1.388;2024-03-22T06:24:14;14.63;;;5.20;;
24233;SDS011;12365;43.554;1.388;2024-03-22T06:26:39;19.17;;;5.47;;
24233;SDS011;12365;43.554;1.388;2024-03-22T06:29:05;19.90;;;5.28;;
24233;SDS011;12365;43.554;1.388;2024-03-22T06:31:30;13.80;;;5.28;;
24233;SDS011;12365;43.554;1.388;2024-03-22T06:33:56;18.05;;;5.63;;
24233;SDS011;12365;43.554;1.388;2024-03-22T06:36:27;21.02;;;6.63;;
24233;SDS011;12365;43.554;1.388;2024-03-22T06:38:58;16.67;;;5.93;;
24233;SDS011;12365;43.554;1.388;2024-03-22T06:41:24;12.10;;;5.22;;
24233;SDS011;12365;43.554;1.388;2024-03-22T06:43:51;13.20;;;5.45;;
24233;SDS011;12365;43.554;1.388;2024-03-22T06:46:16;26.95;;;5.75;;
24233;SDS011;12365;43.554;1.388;2024-03-22T06:48:42;18.15;;;5.85;;
24233;SDS011;12365;43.554;1.388;2024-03-22T06:51:08;24.05;;;5.93;;
24233;SDS011;12365;43.554;1.388;2024-03-22T06:53:33;29.92;;;6.20;;
24233;SDS011;12365;43.554;1.388;2024-03-22T06:55:58;30.05;;;6.03;;
24233;SDS011;12365;43.554;1.388;2024-03-22T06:58:24;24.35;;;6.10;;
24233;SDS011;12365;43.554;1.388;2024-03-22T07:00:50;19.77;;;5.68;;
24233;SDS011;12365;43.554;1.388;2024-03-22T07:03:15;16.55;;;5.93;;
24233;SDS011;12365;43.554;1.388;2024-03-22T07:05:42;15.43;;;5.72;;
24233;SDS011;12365;43.554;1.388;2024-03-22T07:08:07;12.90;;;6.00;;
24233;SDS011;12365;43.554;1.388;2024-03-22T07:10:33;15.68;;;5.57;;
24233;SDS011;12365;43.554;1.388;2024-03-22T07:12:59;18.05;;;6.10;;
24233;SDS011;12365;43.554;1.388;2024-03-22T07:15:24;11.95;;;5.55;;
24233;SDS011;12365;43.554;1.388;2024-03-22T07:17:50;15.02;;;5.25;;
24233;SDS011;12365;43.554;1.388;2024-03-22T07:20:16;13.30;;;5.60;;
24233;SDS011;12365;43.554;1.388;2024-03-22T07:22:42;11.88;;;5.43;;
24233;SDS011;12365;43.554;1.388;2024-03-22T07:25:07;14.60;;;5.43;;
24233;SDS011;12365;43.554;1.388;2024-03-22T07:27:35;15.95;;;5.93;;
24233;SDS011;12365;43.554;1.388;2024-03-22T07:30:01;16.63;;;5.28;;
24233;SDS011;12365;43.554;1.388;2024-03-22T07:32:26;15.30;;;5.75;;
24233;SDS011;12365;43.554;1.388;2024-03-22T07:34:52;13.57;;;5.32;;
24233;SDS011;12365;43.554;1.388;2024-03-22T07:37:17;12.90;;;5.57;;
24233;SDS011;12365;43.554;1.388;2024-03-22T07:39:42;19.42;;;5.80;;
24233;SDS011;12365;43.554;1.388;2024-03-22T07:42:08;16.95;;;5.38;;
24233;SDS011;12365;43.554;1.388;2024-03-22T07:44:33;20.10;;;5.65;;
24233;SDS011;12365;43.554;1.388;2024-03-22T07:46:59;20.52;;;5.70;;
24233;SDS011;12365;43.554;1.388;2024-03-22T07:49:24;18.05;;;5.43;;
24233;SDS011;12365;43.554;1.388;2024-03-22T07:51:49;21.60;;;5.70;;
24233;SDS011;12365;43.554;1.388;2024-03-22T07:54:15;23.75;;;5.47;;
24233;SDS011;12365;43.554;1.388;2024-03-22T07:56:41;13.43;;;5.30;;
24233;SDS011;12365;43.554;1.388;2024-03-22T07:59:06;12.27;;;5.50;;
24233;SDS011;12365;43.554;1.388;2024-03-22T08:01:32;16.23;;;5.32;;
24233;SDS011;12365;43.554;1.388;2024-03-22T08:03:57;13.75;;;5.65;;
24233;SDS011;12365;43.554;1.388;2024-03-22T08:06:22;14.35;;;5.40;;
24233;SDS011;12365;43.554;1.388;2024-03-22T08:08:48;20.13;;;5.70;;
24233;SDS011;12365;43.554;1.388;2024-03-22T08:11:14;15.65;;;5.60;;
24233;SDS011;12365;43.554;1.388;2024-03-22T08:13:39;28.67;;;5.75;;
24233;SDS011;12365;43.554;1.388;2024-03-22T08:16:05;13.95;;;5.03;;
24233;SDS011;12365;43.554;1.388;2024-03-22T08:18:31;13.45;;;4.55;;
24233;SDS011;12365;43.554;1.388;2024-03-22T08:20:57;14.00;;;5.13;;
24233;SDS011;12365;43.554;1.388;2024-03-22T08:23:24;13.02;;;4.20;;
24233;SDS011;12365;43.554;1.388;2024-03-22T08:25:49;10.95;;;4.47;;
24233;SDS011;12365;43.554;1.388;2024-03-22T08:28:15;13.65;;;4.90;;
24233;SDS011;12365;43.554;1.388;2024-03-22T08:30:41;12.52;;;4.85;;
24233;SDS011;12365;43.554;1.388;2024-03-22T08:33:07;14.48;;;5.03;;
24233;SDS011;12365;43.554;1.388;2024-03-22T08:35:32;11.98;;;4.63;;
24233;SDS011;12365;43.554;1.388;2024-03-22T08:37:58;13.57;;;4.82;;
24233;SDS011;12365;43.554;1.388;2024-03-22T08:40:24;22.83;;;4.93;;
24233;SDS011;12365;43.554;1.388;2024-03-22T08:42:49;13.98;;;4.85;;
24233;SDS011;12365;43.554;1.388;2024-03-22T08:45:15;15.57;;;4.72;;
24233;SDS011;12365;43.554;1.388;2024-03-22T08:47:41;15.40;;;4.40;;
24233;SDS011;12365;43.554;1.388;2024-03-22T08:50:07;11.30;;;4.95;;
24233;SDS011;12365;43.554;1.388;2024-03-22T08:52:33;10.15;;;4.72;;
24233;SDS011;12365;43.554;1.388;2024-03-22T08:55:00;17.27;;;4.75;;
24233;SDS011;12365;43.554;1.388;2024-03-22T08:57:26;15.20;;;4.88;;
24233;SDS011;12365;43.554;1.388;2024-03-22T08:59:51;11.23;;;4.40;;
24233;SDS011;12365;43.554;1.388;2024-03-22T09:02:17;16.02;;;5.00;;
24233;SDS011;12365;43.554;1.388;2024-03-22T09:04:42;9.93;;;4.30;;
24233;SDS011;12365;43.554;1.388;2024-03-22T09:07:07;14.73;;;4.72;;
24233;SDS011;12365;43.554;1.388;2024-03-22T09:09:33;17.55;;;5.28;;
24233;SDS011;12365;43.554;1.388;2024-03-22T09:11:58;12.50;;;4.60;;
24233;SDS011;12365;43.554;1.388;2024-03-22T09:14:24;11.82;;;5.03;;
24233;SDS011;12365;43.554;1.388;2024-03-22T09:16:49;13.30;;;5.45;;
24233;SDS011;12365;43.554;1.388;2024-03-22T09:19:15;18.77;;;5.15;;
24233;SDS011;12365;43.554;1.388;2024-03-22T09:21:40;14.30;;;5.40;;
24233;SDS011;12365;43.554;1.388;2024-03-22T09:24:05;11.55;;;4.57;;
24233;SDS011;12365;43.554;1.388;2024-03-22T09:26:34;14.23;;;5.03;;
24233;SDS011;12365;43.554;1.388;2024-03-22T09:29:00;13.65;;;4.78;;
24233;SDS011;12365;43.554;1.388;2024-03-22T09:31:25;11.25;;;5.18;;
24233;SDS011;12365;43.554;1.388;2024-03-22T09:33:51;15.18;;;5.15;;
24233;SDS011;12365;43.554;1.388;2024-03-22T09:36:16;15.00;;;4.97;;
24233;SDS011;12365;43.554;1.388;2024-03-22T09:38:41;15.80;;;4.60;;
24233;SDS011;12365;43.554;1.388;2024-03-22T09:41:07;13.90;;;4.97;;
24233;SDS011;12365;43.554;1.388;2024-03-22T09:43:32;11.95;;;5.18;;
24233;SDS011;12365;43.554;1.388;2024-03-22T09:45:59;17.15;;;5.25;;
24233;SDS011;12365;43.554;1.388;2024-03-22T09:48:25;13.68;;;5.40;;
24233;SDS011;12365;43.554;1.388;2024-03-22T09:50:51;17.23;;;5.50;;
24233;SDS011;12365;43.554;1.388;2024-03-22T09:53:19;9.13;;;4.90;;
24233;SDS011;12365;43.554;1.388;2024-03-22T09:55:49;18.35;;;5.10;;
24233;SDS011;12365;43.554;1.388;2024-03-22T09:58:15;11.93;;;5.13;;
24233;SDS011;12365;43.554;1.388;2024-03-22T10:00:44;15.45;;;5.00;;
24233;SDS011;12365;43.554;1.388;2024-03-22T10:03:09;10.13;;;4.68;;
24233;SDS011;12365;43.554;1.388;2024-03-22T10:05:36;10.65;;;4.68;;
24233;SDS011;12365;43.554;1.388;2024-03-22T10:08:05;14.05;;;4.85;;
24233;SDS011;12365;43.554;1.388;2024-03-22T10:10:31;13.27;;;4.65;;
24233;SDS011;12365;43.554;1.388;2024-03-22T10:12:59;9.82;;;4.30;;
24233;SDS011;12365;43.554;1.388;2024-03-22T10:15:26;11.63;;;4.80;;
24233;SDS011;12365;43.554;1.388;2024-03-22T10:17:51;11.85;;;5.00;;
24233;SDS011;12365;43.554;1.388;2024-03-22T10:20:19;14.05;;;4.90;;
24233;SDS011;12365;43.554;1.388;2024-03-22T10:22:48;11.88;;;5.28;;
24233;SDS011;12365;43.554;1.388;2024-03-22T10:25:14;11.15;;;4.25;;
24233;SDS011;12365;43.554;1.388;2024-03-22T10:27:40;12.10;;;4.78;;
24233;SDS011;12365;43.554;1.388;2024-03-22T10:30:08;10.73;;;4.70;;
24233;SDS011;12365;43.554;1.388;2024-03-22T10:32:37;12.73;;;4.85;;
24233;SDS011;12365;43.554;1.388;2024-03-22T10:35:03;10.50;;;4.88;;
24233;SDS011;12365;43.554;1.388;2024-03-22T10:37:32;15.35;;;5.03;;
24233;SDS011;12365;43.554;1.388;2024-03-22T10:40:00;12.85;;;4.88;;
24233;SDS011;12365;43.554;1.388;2024-03-22T10:42:33;17.27;;;4.63;;
24233;SDS011;12365;43.554;1.388;2024-03-22T10:45:02;16.75;;;4.60;;
24233;SDS011;12365;43.554;1.388;2024-03-22T10:47:29;12.30;;;4.43;;
24233;SDS011;12365;43.554;1.388;2024-03-22T10:49:57;12.40;;;4.47;;
24233;SDS011;12365;43.554;1.388;2024-03-22T10:52:31;16.08;;;4.45;;
24233;SDS011;12365;43.554;1.388;2024-03-22T10:54:59;14.50;;;4.07;;
24233;SDS011;12365;43.554;1.388;2024-03-22T10:57:25;9.77;;;3.58;;
24233;SDS011;12365;43.554;1.388;2024-03-22T10:59:54;11.50;;;3.70;;
24233;SDS011;12365;43.554;1.388;2024-03-22T11:02:19;12.25;;;4.10;;
24233;SDS011;12365;43.554;1.388;2024-03-22T11:04:58;10.10;;;3.83;;
24233;SDS011;12365;43.554;1.388;2024-03-22T11:07:28;11.27;;;3.75;;
24233;SDS011;12365;43.554;1.388;2024-03-22T11:09:58;12.18;;;4.07;;
24233;SDS011;12365;43.554;1.388;2024-03-22T11:12:26;12.18;;;3.78;;
24233;SDS011;12365;43.554;1.388;2024-03-22T11:14:55;18.58;;;3.88;;
24233;SDS011;12365;43.554;1.388;2024-03-22T11:17:20;8.40;;;3.67;;
24233;SDS011;12365;43.554;1.388;2024-03-22T11:19:50;13.82;;;3.80;;
24233;SDS011;12365;43.554;1.388;2024-03-22T11:22:16;14.60;;;3.58;;
24233;SDS011;12365;43.554;1.388;2024-03-22T11:24:42;13.35;;;3.88;;
24233;SDS011;12365;43.554;1.388;2024-03-22T11:27:08;14.43;;;3.78;;
24233;SDS011;12365;43.554;1.388;2024-03-22T11:29:36;10.90;;;3.70;;
24233;SDS011;12365;43.554;1.388;2024-03-22T11:32:04;19.40;;;3.97;;
24233;SDS011;12365;43.554;1.388;2024-03-22T11:34:30;19.13;;;3.72;;
24233;SDS011;12365;43.554;1.388;2024-03-22T11:36:55;14.20;;;3.72;;
24233;SDS011;12365;43.554;1.388;2024-03-22T11:39:21;9.07;;;3.20;;
24233;SDS011;12365;43.554;1.388;2024-03-22T11:41:47;11.95;;;3.50;;
24233;SDS011;12365;43.554;1.388;2024-03-22T11:44:14;9.18;;;3.45;;
24233;SDS011;12365;43.554;1.388;2024-03-22T11:46:43;11.80;;;3.20;;
24233;SDS011;12365;43.554;1.388;2024-03-22T11:49:08;9.63;;;3.47;;
24233;SDS011;12365;43.554;1.388;2024-03-22T11:51:34;8.00;;;3.35;;
24233;SDS011;12365;43.554;1.388;2024-03-22T11:53:59;9.80;;;3.30;;
24233;SDS011;12365;43.554;1.388;2024-03-22T11:56:28;10.43;;;3.55;;
24233;SDS011;12365;43.554;1.388;2024-03-22T11:59:00;9.45;;;3.20;;
24233;SDS011;12365;43.554;1.388;2024-03-22T12:01:28;11.98;;;3.20;;
24233;SDS011;12365;43.554;1.388;2024-03-22T12:03:53;15.25;;;3.15;;
24233;SDS011;12365;43.554;1.388;2024-03-22T12:06:20;8.13;;;3.40;;
24233;SDS011;12365;43.554;1.388;2024-03-22T12:08:45;12.93;;;3.50;;
24233;SDS011;12365;43.554;1.388;2024-03-22T12:11:11;10.52;;;3.40;;
24233;SDS011;12365;43.554;1.388;2024-03-22T12:13:38;9.57;;;3.47;;
24233;SDS011;12365;43.554;1.388;2024-03-22T12:16:03;14.13;;;3.35;;
24233;SDS011;12365;43.554;1.388;2024-03-22T12:18:30;10.05;;;3.25;;
24233;SDS011;12365;43.554;1.388;2024-03-22T12:20:56;10.93;;;3.40;;
24233;SDS011;12365;43.554;1.388;2024-03-22T12:23:21;8.85;;;3.03;;
24233;SDS011;12365;43.554;1.388;2024-03-22T12:25:47;9.73;;;2.97;;
24233;SDS011;12365;43.554;1.388;2024-03-22T12:28:12;12.55;;;2.97;;
24233;SDS011;12365;43.554;1.388;2024-03-22T12:30:39;7.97;;;2.92;;
24233;SDS011;12365;43.554;1.388;2024-03-22T12:33:04;21.10;;;2.92;;
24233;SDS011;12365;43.554;1.388;2024-03-22T12:35:35;10.75;;;3.00;;
24233;SDS011;12365;43.554;1.388;2024-03-22T12:38:00;8.95;;;3.00;;
24233;SDS011;12365;43.554;1.388;2024-03-22T12:40:26;9.77;;;3.25;;
24233;SDS011;12365;43.554;1.388;2024-03-22T12:42:52;11.45;;;2.83;;
24233;SDS011;12365;43.554;1.388;2024-03-22T12:45:18;10.45;;;3.13;;
24233;SDS011;12365;43.554;1.388;2024-03-22T12:47:44;7.07;;;2.80;;
24233;SDS011;12365;43.554;1.388;2024-03-22T12:50:09;8.90;;;2.83;;
24233;SDS011;12365;43.554;1.388;2024-03-22T12:52:38;11.43;;;3.28;;
24233;SDS011;12365;43.554;1.388;2024-03-22T12:55:03;7.63;;;2.67;;
24233;SDS011;12365;43.554;1.388;2024-03-22T12:57:29;8.90;;;2.63;;
24233;SDS011;12365;43.554;1.388;2024-03-22T12:59:54;10.85;;;2.70;;
24233;SDS011;12365;43.554;1.388;2024-03-22T13:02:20;12.13;;;3.00;;
24233;SDS011;12365;43.554;1.388;2024-03-22T13:04:45;8.35;;;2.70;;
24233;SDS011;12365;43.554;1.388;2024-03-22T13:07:11;10.90;;;2.47;;
24233;SDS011;12365;43.554;1.388;2024-03-22T13:09:36;11.27;;;2.85;;
24233;SDS011;12365;43.554;1.388;2024-03-22T13:12:02;7.10;;;2.78;;
24233;SDS011;12365;43.554;1.388;2024-03-22T13:14:27;11.88;;;3.00;;
24233;SDS011;12365;43.554;1.388;2024-03-22T13:16:53;9.75;;;2.65;;
24233;SDS011;12365;43.554;1.388;2024-03-22T13:19:18;9.95;;;3.20;;
24233;SDS011;12365;43.554;1.388;2024-03-22T13:21:44;12.18;;;3.00;;
24233;SDS011;12365;43.554;1.388;2024-03-22T13:24:12;11.13;;;2.60;;
24233;SDS011;12365;43.554;1.388;2024-03-22T13:26:38;10.80;;;3.20;;
24233;SDS011;12365;43.554;1.388;2024-03-22T13:29:03;13.05;;;3.25;;
24233;SDS011;12365;43.554;1.388;2024-03-22T13:31:29;9.02;;;3.10;;
24233;SDS011;12365;43.554;1.388;2024-03-22T13:33:54;14.85;;;3.25;;
24233;SDS011;12365;43.554;1.388;2024-03-22T13:36:20;10.77;;;2.80;;
24233;SDS011;12365;43.554;1.388;2024-03-22T13:38:45;10.13;;;2.72;;
24233;SDS011;12365;43.554;1.388;2024-03-22T13:41:10;10.07;;;2.70;;
24233;SDS011;12365;43.554;1.388;2024-03-22T13:43:36;11.55;;;2.78;;
24233;SDS011;12365;43.554;1.388;2024-03-22T13:46:04;16.00;;;2.75;;
24233;SDS011;12365;43.554;1.388;2024-03-22T13:48:30;9.18;;;2.33;;
24233;SDS011;12365;43.554;1.388;2024-03-22T13:50:56;17.17;;;3.10;;
24233;SDS011;12365;43.554;1.388;2024-03-22T13:53:22;9.90;;;2.90;;
24233;SDS011;12365;43.554;1.388;2024-03-22T13:55:48;10.48;;;2.70;;
24233;SDS011;12365;43.554;1.388;2024-03-22T13:58:14;13.63;;;2.85;;
24233;SDS011;12365;43.554;1.388;2024-03-22T14:00:40;10.35;;;2.78;;
24233;SDS011;12365;43.554;1.388;2024-03-22T14:03:05;14.43;;;3.00;;
24233;SDS011;12365;43.554;1.388;2024-03-22T14:05:31;13.40;;;3.20;;
24233;SDS011;12365;43.554;1.388;2024-03-22T14:07:57;13.13;;;2.80;;
24233;SDS011;12365;43.554;1.388;2024-03-22T14:10:23;10.65;;;2.67;;
24233;SDS011;12365;43.554;1.388;2024-03-22T14:12:50;10.95;;;2.83;;
24233;SDS011;12365;43.554;1.388;2024-03-22T14:15:15;14.30;;;3.00;;
24233;SDS011;12365;43.554;1.388;2024-03-22T14:17:41;12.10;;;2.58;;
24233;SDS011;12365;43.554;1.388;2024-03-22T14:20:07;12.75;;;3.03;;
24233;SDS011;12365;43.554;1.388;2024-03-22T14:22:37;16.08;;;2.95;;
24233;SDS011;12365;43.554;1.388;2024-03-22T14:25:05;11.00;;;2.60;;
24233;SDS011;12365;43.554;1.388;2024-03-22T14:27:32;9.55;;;2.75;;